| Date | Time | Temp. (oF) | Dew Point (oF) | Rel. Hum. (%) | Press. (in.) | Wind Dir. (deg.) | Wind Speed (mph) | Hourly Rainfall (i n.) |
|
|---|---|---|---|---|---|---|---|---|---|
| 1 | 08/27 | 24:00 | 71 | 69 | 96 | 30.05 | 310 | 1 | 0.00 |
| 2 | 08/26 | 23:00 | 71 | 69 | 96 | 30.05 | 290 | 1 | 0.00 |
| 3 | 08/26 | 22:00 | 71 | 69 | 96 | 30.05 | 330 | 4 | 0.01 |
| 4 | 08/26 | 21:00 | 72 | 70 | 95 | 30.04 | 130 | 2 | 0.02 |
| 5 | 08/26 | 20:00 | 71 | 69 | 94 | 30.02 | 300 | 0 | 0.34 |
| 6 | 08/26 | 19:00 | 76 | 73 | 91 | 30.05 | 330 | 6 | 0.16 |
| 7 | 08/26 | 18:00 | 80 | 71 | 76 | 30.04 | 40 | 1 | 0.00 |
| 8 | 08/26 | 17:00 | 82 | 72 | 72 | 30.06 | 50 | 1 | 0.00 |
| 9 | 08/26 | 16:00 | 83 | 72 | 71 | 30.06 | 50 | 1 | 0.00 |
| 10 | 08/26 | 15:00 | 81 | 72 | 75 | 30.07 | 300 | 1 | 0.00 |
| 11 | 08/26 | 14:00 | 82 | 72 | 74 | 30.08 | 130 | 4 | 0.00 |
| 12 | 08/26 | 13:00 | 80 | 72 | 78 | 30.07 | 50 | 1 | 0.00 |
| 13 | 08/26 | 12:00 | 77 | 73 | 88 | 30.08 | 50 | 0 | 0.00 |
| 14 | 08/26 | 11:00 | 75 | 71 | 90 | 30.10 | 90 | 1 | 0.00 |
| 15 | 08/26 | 10:00 | 74 | 71 | 93 | 30.08 | 90 | 1 | 0.00 |
| 16 | 08/26 | 09:00 | 73 | 71 | 96 | 30.07 | 20 | 0 | 0.00 |
| 17 | 08/26 | 08:00 | 72 | 71 | 97 | 30.07 | 20 | 0 | 0.00 |
| 18 | 08/26 | 07:00 | 71 | 70 | 97 | 30.05 | 20 | 0 | 0.00 |
| 19 | 08/26 | 06:00 | 71 | 70 | 97 | 30.05 | 20 | 0 | 0.00 |
| 20 | 08/26 | 05:00 | 71 | 70 | 97 | 30.04 | 20 | 0 | 0.00 |
| 21 | 08/26 | 04:00 | 71 | 70 | 97 | 30.04 | 20 | 0 | 0.00 |
| 22 | 08/26 | 03:00 | 71 | 70 | 97 | 30.06 | 20 | 1 | 0.00 |
| 23 | 08/26 | 02:00 | 70 | 69 | 97 | 30.08 | 330 | 1 | 0.00 |
| 24 | 08/26 | 01:00 | 70 | 68 | 96 | 30.09 | 330 | 2 | 0.09 |